Ellen — SIDM — position and weather

sailwx.info

Track history (hours):
 
Tides and Currents Weather Stations Pressure Air Temp Water Temp Dewpoint Dewpoint Depression Visibility Wind Speed Wind Dir Waves Ship Positions

Ellen (Sweden)

Ship's website: http://www.syellen.org/Skolsegelfartyget_Ellen/Hem.html

Last reported at 2020-Jul-03 16:30 UTC. Time now 2020-Jul-03 18:55 UTC.
Position N 57°22' E 016°59'.

Length 22 m; draft 2.2 m.

Type: Sailing vessel. MMSI: 265508900.

Date/timePositionNaut miles runAvg speedWind from/ knotsBaromVisibWave heightAir tempDewpointWater temp
2020-Jul-03 16:30N 57°22' E 016°59'4 7.1
2020-Jul-03 16:00N 57°25' E 017°00'12 6.3
2020-Jul-03 14:10N 57°37' E 017°02'6 5.8
2020-Jul-03 13:04N 57°43' E 017°02'12 4.6
2020-Jul-03 10:30N 57°55' E 017°01'2 4.1
2020-Jul-03 10:00N 57°57' E 017°00'2 4.4
2020-Jul-03 09:28N 57°59' E 016°58'2 3.7
2020-Jul-03 09:00N 58°00' E 016°56'2 5.0
2020-Jul-03 08:30N 58°02' E 016°53'7 3.3
2020-Jul-03 06:30N 58°08' E 016°51'5 1.8
2020-Jul-03 04:00N 58°12' E 016°57'0 0.0
2020-Jul-03 02:59N 58°12' E 016°57'0 0.0
2020-Jul-03 02:30N 58°12' E 016°57'0 0.0
2020-Jul-02 20:30N 58°12' E 016°57'0 0.0
2020-Jul-02 19:30N 58°12' E 016°57'2 2.1
2020-Jul-02 18:30N 58°13' E 016°54'11 4.3
2020-Jul-02 16:00N 58°24' E 016°57'6 3.8
2020-Jul-02 14:30N 58°29' E 016°57'0 0.1
2020-Jul-02 11:30N 58°29' E 016°57'0 0.0
2020-Jul-02 11:00N 58°29' E 016°57'0 0.0
2020-Jul-02 10:30N 58°29' E 016°57'0 0.1
2020-Jul-02 09:30N 58°29' E 016°57'2 4.2
2020-Jul-02 09:00N 58°27' E 016°58'2 0.7
2020-Jul-02 06:30N 58°26' E 016°59'0 0.0
2020-Jul-02 04:00N 58°26' E 016°59'0 0.0
2020-Jul-02 03:30N 58°26' E 016°59'0 0.0
2020-Jul-02 02:30N 58°26' E 016°59'1 1.2
2020-Jul-02 01:30N 58°27' E 016°58'11 5.5
2020-Jul-01 23:30N 58°37' E 017°06'22 4.4
2020-Jul-01 18:30N 58°47' E 017°44'9 3.8
2020-Jul-01 16:00N 58°52' E 018°00'6 2.4
2020-Jul-01 13:30N 58°56' E 018°07'3 0.3
2020-Jul-01 05:28N 58°59' E 018°10'0 0.0
2020-Jul-01 03:55N 58°59' E 018°10'0 0.0
2020-Jul-01 02:28N 58°59' E 018°10'0 0.0
2020-Jun-30 18:30N 58°59' E 018°10'0 0.0
2020-Jun-30 18:01N 58°59' E 018°10'0 0.0
2020-Jun-30 17:30N 58°59' E 018°10'0 0.0
2020-Jun-30 16:30N 58°59' E 018°10'2 1.9
2020-Jun-30 15:30N 58°59' E 018°13'1 0.6
2020-Jun-30 14:30N 58°59' E 018°15'1 0.9
2020-Jun-30 13:30N 58°59' E 018°16'2 1.0
2020-Jun-30 12:00N 59°00' E 018°16'10 1.0
2020-Jun-30 02:30N 59°05' E 018°32'0 0.0
2020-Jun-29 22:57N 59°05' E 018°32'0 0.0
2020-Jun-29 22:30N 59°05' E 018°32'0 0.0
2020-Jun-29 21:30N 59°05' E 018°32'3 0.5
2020-Jun-29 16:27N 59°07' E 018°29'1 1.2
2020-Jun-29 16:00N 59°07' E 018°28'1 0.5
2020-Jun-29 14:00N 59°08' E 018°29'0 0.8
2020-Jun-29 13:27N 59°08' E 018°30'6 0.9
2020-Jun-29 06:57N 59°13' E 018°25'0 0.0
2020-Jun-29 05:27N 59°13' E 018°25'0 0.0
2020-Jun-29 04:27N 59°13' E 018°25'0 0.0
2020-Jun-29 00:21N 59°13' E 018°25'0 0.0
2020-Jun-28 23:27N 59°13' E 018°25'0 0.0
2020-Jun-28 22:27N 59°13' E 018°25'0 0.0
2020-Jun-28 21:57N 59°13' E 018°25'0 0.0
2020-Jun-28 21:27N 59°13' E 018°25'0 0.0
2020-Jun-28 18:27N 59°13' E 018°25'0 0.0
2020-Jun-28 14:27N 59°13' E 018°25'0 0.0
2020-Jun-28 13:27N 59°13' E 018°25'1 0.7
2020-Jun-28 12:00N 59°14' E 018°24'11 2.3
2020-Jun-28 07:29N 59°19' E 018°06'0 0.0
2020-Jun-28 04:59N 59°19' E 018°06'0 0.0
2020-Jun-28 02:29N 59°19' E 018°06'0 0.0
2020-Jun-28 01:29N 59°19' E 018°06'0 0.0
2020-Jun-27 22:59N 59°19' E 018°06'0 0.0
2020-Jun-27 22:29N 59°19' E 018°06'0 0.0
2020-Jun-27 19:29N 59°19' E 018°06'0 0.0
2020-Jun-27 18:59N 59°19' E 018°06'0 0.0
2020-Jun-27 16:29N 59°19' E 018°06'0 0.0
2020-Jun-27 13:59N 59°19' E 018°06'0 0.0
2020-Jun-27 13:29N 59°19' E 018°06'0 0.0
2020-Jun-27 09:29N 59°19' E 018°06'0 0.0
2020-Jun-27 07:59N 59°19' E 018°06'0 0.0
2020-Jun-27 07:29N 59°19' E 018°06'0 0.0
2020-Jun-27 05:59N 59°19' E 018°06'0 0.0
2020-Jun-27 02:29N 59°19' E 018°06'0 0.0
2020-Jun-27 01:59N 59°19' E 018°06'0 0.0
2020-Jun-27 00:59N 59°19' E 018°06'0 0.0
2020-Jun-26 22:59N 59°19' E 018°06'0 0.0
2020-Jun-26 20:59N 59°19' E 018°06'0 0.0
2020-Jun-26 20:29N 59°19' E 018°06'0 0.0
2020-Jun-26 18:59N 59°19' E 018°06'0 0.0
2020-Jun-26 17:29N 59°19' E 018°06'0 0.0
2020-Jun-26 15:59N 59°19' E 018°06'0 0.0
2020-Jun-26 13:59N 59°19' E 018°06'0 0.0
2020-Jun-26 12:59N 59°19' E 018°06'0 0.0
2020-Jun-26 12:29N 59°19' E 018°06'0 0.0
2020-Jun-26 11:59N 59°19' E 018°06'0 0.0
2020-Jun-26 11:29N 59°19' E 018°06'0 0.0
2020-Jun-26 10:59N 59°19' E 018°06'0 0.0
2020-Jun-26 07:59N 59°19' E 018°06'0 0.0
2020-Jun-26 07:29N 59°19' E 018°06'0 0.0
2020-Jun-26 06:59N 59°19' E 018°06'0 0.0
2020-Jun-26 05:59N 59°19' E 018°06'0 0.0
2020-Jun-26 05:29N 59°19' E 018°06'0 0.0
2020-Jun-26 02:29N 59°19' E 018°06'0 0.0
2020-Jun-26 00:29N 59°19' E 018°06'0 0.0
2020-Jun-25 19:59N 59°19' E 018°06'0 0.0
2020-Jun-25 18:59N 59°19' E 018°06'0 0.0
2020-Jun-25 17:59N 59°19' E 018°06'0 0.0
2020-Jun-25 16:29N 59°19' E 018°06'0 0.0
2020-Jun-25 14:29N 59°19' E 018°06'0 0.0
2020-Jun-25 13:00N 59°19' E 018°06'2 4.7
2020-Jun-25 12:30N 59°20' E 018°11'4 7.6
2020-Jun-25 12:01N 59°22' E 018°17'4 7.0
2020-Jun-25 11:30N 59°24' E 018°22'13 2.0
2020-Jun-25 04:54N 59°27' E 018°47'0 0.0
2020-Jun-25 03:54N 59°27' E 018°47'0 0.0
2020-Jun-25 01:33N 59°27' E 018°47'0 0.0
2020-Jun-25 01:21N 59°27' E 018°47'0 0.0
2020-Jun-25 00:00N 59°27' E 018°47'0 0.0
2020-Jun-24 20:54N 59°27' E 018°47'2 0.3
2020-Jun-24 13:59N 59°25' E 018°49'5 2.5
2020-Jun-24 11:51N 59°20' E 018°47'6 3.0
2020-Jun-24 09:49N 59°15' E 018°40'  
Track history (hours):
 
Tides and Currents Weather Stations Pressure Air Temp Water Temp Dewpoint Dewpoint Depression Visibility Wind Speed Wind Dir Waves Ship Positions

Ellen (Sweden)

Ship's website: http://www.syellen.org/Skolsegelfartyget_Ellen/Hem.html

Last reported at 2020-Jul-03 16:30 UTC. Time now 2020-Jul-03 18:55 UTC.
Position N 57°22' E 016°59'.

Length 22 m; draft 2.2 m.

Type: Sailing vessel. MMSI: 265508900.

Date/timePositionNaut miles runAvg speedWind from/ knotsBaromVisibWave heightAir tempDewpointWater temp
2020-Jul-03 16:30N 57°22' E 016°59'4 7.1
2020-Jul-03 16:00N 57°25' E 017°00'12 6.3
2020-Jul-03 14:10N 57°37' E 017°02'6 5.8
2020-Jul-03 13:04N 57°43' E 017°02'12 4.6
2020-Jul-03 10:30N 57°55' E 017°01'2 4.1
2020-Jul-03 10:00N 57°57' E 017°00'2 4.4
2020-Jul-03 09:28N 57°59' E 016°58'2 3.7
2020-Jul-03 09:00N 58°00' E 016°56'2 5.0
2020-Jul-03 08:30N 58°02' E 016°53'7 3.3
2020-Jul-03 06:30N 58°08' E 016°51'5 1.8
2020-Jul-03 04:00N 58°12' E 016°57'0 0.0
2020-Jul-03 02:59N 58°12' E 016°57'0 0.0
2020-Jul-03 02:30N 58°12' E 016°57'0 0.0
2020-Jul-02 20:30N 58°12' E 016°57'0 0.0
2020-Jul-02 19:30N 58°12' E 016°57'2 2.1
2020-Jul-02 18:30N 58°13' E 016°54'11 4.3
2020-Jul-02 16:00N 58°24' E 016°57'6 3.8
2020-Jul-02 14:30N 58°29' E 016°57'0 0.1
2020-Jul-02 11:30N 58°29' E 016°57'0 0.0
2020-Jul-02 11:00N 58°29' E 016°57'0 0.0
2020-Jul-02 10:30N 58°29' E 016°57'0 0.1
2020-Jul-02 09:30N 58°29' E 016°57'2 4.2
2020-Jul-02 09:00N 58°27' E 016°58'2 0.7
2020-Jul-02 06:30N 58°26' E 016°59'0 0.0
2020-Jul-02 04:00N 58°26' E 016°59'0 0.0
2020-Jul-02 03:30N 58°26' E 016°59'0 0.0
2020-Jul-02 02:30N 58°26' E 016°59'1 1.2
2020-Jul-02 01:30N 58°27' E 016°58'11 5.5
2020-Jul-01 23:30N 58°37' E 017°06'22 4.4
2020-Jul-01 18:30N 58°47' E 017°44'9 3.8
2020-Jul-01 16:00N 58°52' E 018°00'6 2.4
2020-Jul-01 13:30N 58°56' E 018°07'3 0.3
2020-Jul-01 05:28N 58°59' E 018°10'0 0.0
2020-Jul-01 03:55N 58°59' E 018°10'0 0.0
2020-Jul-01 02:28N 58°59' E 018°10'0 0.0
2020-Jun-30 18:30N 58°59' E 018°10'0 0.0
2020-Jun-30 18:01N 58°59' E 018°10'0 0.0
2020-Jun-30 17:30N 58°59' E 018°10'0 0.0
2020-Jun-30 16:30N 58°59' E 018°10'2 1.9
2020-Jun-30 15:30N 58°59' E 018°13'1 0.6
2020-Jun-30 14:30N 58°59' E 018°15'1 0.9
2020-Jun-30 13:30N 58°59' E 018°16'2 1.0
2020-Jun-30 12:00N 59°00' E 018°16'10 1.0
2020-Jun-30 02:30N 59°05' E 018°32'0 0.0
2020-Jun-29 22:57N 59°05' E 018°32'0 0.0
2020-Jun-29 22:30N 59°05' E 018°32'0 0.0
2020-Jun-29 21:30N 59°05' E 018°32'3 0.5
2020-Jun-29 16:27N 59°07' E 018°29'1 1.2
2020-Jun-29 16:00N 59°07' E 018°28'1 0.5
2020-Jun-29 14:00N 59°08' E 018°29'0 0.8
2020-Jun-29 13:27N 59°08' E 018°30'6 0.9
2020-Jun-29 06:57N 59°13' E 018°25'0 0.0
2020-Jun-29 05:27N 59°13' E 018°25'0 0.0
2020-Jun-29 04:27N 59°13' E 018°25'0 0.0
2020-Jun-29 00:21N 59°13' E 018°25'0 0.0
2020-Jun-28 23:27N 59°13' E 018°25'0 0.0
2020-Jun-28 22:27N 59°13' E 018°25'0 0.0
2020-Jun-28 21:57N 59°13' E 018°25'0 0.0
2020-Jun-28 21:27N 59°13' E 018°25'0 0.0
2020-Jun-28 18:27N 59°13' E 018°25'0 0.0
2020-Jun-28 14:27N 59°13' E 018°25'0 0.0
2020-Jun-28 13:27N 59°13' E 018°25'1 0.7
2020-Jun-28 12:00N 59°14' E 018°24'11 2.3
2020-Jun-28 07:29N 59°19' E 018°06'0 0.0
2020-Jun-28 04:59N 59°19' E 018°06'0 0.0
2020-Jun-28 02:29N 59°19' E 018°06'0 0.0
2020-Jun-28 01:29N 59°19' E 018°06'0 0.0
2020-Jun-27 22:59N 59°19' E 018°06'0 0.0
2020-Jun-27 22:29N 59°19' E 018°06'0 0.0
2020-Jun-27 19:29N 59°19' E 018°06'0 0.0
2020-Jun-27 18:59N 59°19' E 018°06'0 0.0
2020-Jun-27 16:29N 59°19' E 018°06'0 0.0
2020-Jun-27 13:59N 59°19' E 018°06'0 0.0
2020-Jun-27 13:29N 59°19' E 018°06'0 0.0
2020-Jun-27 09:29N 59°19' E 018°06'0 0.0
2020-Jun-27 07:59N 59°19' E 018°06'0 0.0
2020-Jun-27 07:29N 59°19' E 018°06'0 0.0
2020-Jun-27 05:59N 59°19' E 018°06'0 0.0
2020-Jun-27 02:29N 59°19' E 018°06'0 0.0
2020-Jun-27 01:59N 59°19' E 018°06'0 0.0
2020-Jun-27 00:59N 59°19' E 018°06'0 0.0
2020-Jun-26 22:59N 59°19' E 018°06'0 0.0
2020-Jun-26 20:59N 59°19' E 018°06'0 0.0
2020-Jun-26 20:29N 59°19' E 018°06'0 0.0
2020-Jun-26 18:59N 59°19' E 018°06'0 0.0
2020-Jun-26 17:29N 59°19' E 018°06'0 0.0
2020-Jun-26 15:59N 59°19' E 018°06'0 0.0
2020-Jun-26 13:59N 59°19' E 018°06'0 0.0
2020-Jun-26 12:59N 59°19' E 018°06'0 0.0
2020-Jun-26 12:29N 59°19' E 018°06'0 0.0
2020-Jun-26 11:59N 59°19' E 018°06'0 0.0
2020-Jun-26 11:29N 59°19' E 018°06'0 0.0
2020-Jun-26 10:59N 59°19' E 018°06'0 0.0
2020-Jun-26 07:59N 59°19' E 018°06'0 0.0
2020-Jun-26 07:29N 59°19' E 018°06'0 0.0
2020-Jun-26 06:59N 59°19' E 018°06'0 0.0
2020-Jun-26 05:59N 59°19' E 018°06'0 0.0
2020-Jun-26 05:29N 59°19' E 018°06'0 0.0
2020-Jun-26 02:29N 59°19' E 018°06'0 0.0
2020-Jun-26 00:29N 59°19' E 018°06'0 0.0
2020-Jun-25 19:59N 59°19' E 018°06'0 0.0
2020-Jun-25 18:59N 59°19' E 018°06'0 0.0
2020-Jun-25 17:59N 59°19' E 018°06'0 0.0
2020-Jun-25 16:29N 59°19' E 018°06'0 0.0
2020-Jun-25 14:29N 59°19' E 018°06'0 0.0
2020-Jun-25 13:00N 59°19' E 018°06'2 4.7
2020-Jun-25 12:30N 59°20' E 018°11'4 7.6
2020-Jun-25 12:01N 59°22' E 018°17'4 7.0
2020-Jun-25 11:30N 59°24' E 018°22'13 2.0
2020-Jun-25 04:54N 59°27' E 018°47'0 0.0
2020-Jun-25 03:54N 59°27' E 018°47'0 0.0
2020-Jun-25 01:33N 59°27' E 018°47'0 0.0
2020-Jun-25 01:21N 59°27' E 018°47'0 0.0
2020-Jun-25 00:00N 59°27' E 018°47'0 0.0
2020-Jun-24 20:54N 59°27' E 018°47'2 0.3
2020-Jun-24 13:59N 59°25' E 018°49'5 2.5
2020-Jun-24 11:51N 59°20' E 018°47'6 3.0
2020-Jun-24 09:49N 59°15' E 018°40'  

Dump ship's entire track history